createdAt,value
2019-05-21T00:00:13.102Z,62.40
2019-05-21T00:05:16.938Z,62.40
2019-05-21T00:10:20.638Z,62.40
2019-05-21T00:15:24.348Z,62.20
2019-05-21T00:20:28.003Z,61.80
2019-05-21T00:25:31.722Z,61.80
2019-05-21T00:31:11.160Z,61.80
2019-05-21T00:36:52.572Z,61.90
2019-05-21T00:42:02.082Z,61.70
2019-05-21T00:47:06.083Z,62.00
2019-05-21T00:52:10.081Z,61.70
2019-05-21T00:57:13.730Z,62.60
2019-05-21T01:02:17.351Z,62.10
2019-05-21T01:07:21.003Z,62.00
2019-05-21T01:12:24.863Z,63.60
2019-05-21T01:17:28.570Z,62.20
2019-05-21T01:22:32.411Z,61.90
2019-05-21T01:27:36.134Z,62.40
2019-05-21T01:32:39.975Z,62.30
2019-05-21T01:37:43.782Z,61.50
2019-05-21T01:42:47.420Z,61.70
2019-05-21T01:47:51.342Z,61.50
2019-05-21T01:52:55.063Z,61.30
2019-05-21T01:57:58.793Z,61.80
2019-05-21T02:03:02.445Z,61.50
2019-05-21T02:08:06.179Z,61.70
2019-05-21T02:13:09.915Z,61.80
2019-05-21T02:18:13.728Z,62.50
2019-05-21T02:23:17.693Z,62.20
2019-05-21T02:28:21.360Z,62.80
2019-05-21T02:33:25.103Z,61.90
2019-05-21T02:38:28.954Z,62.60
2019-05-21T02:43:32.884Z,62.00
2019-05-21T02:48:36.735Z,62.50
2019-05-21T02:53:40.560Z,62.30
2019-05-21T02:58:44.404Z,62.10
2019-05-21T03:03:48.122Z,62.10
2019-05-21T03:08:51.885Z,62.60
2019-05-21T03:13:55.543Z,61.50
2019-05-21T03:18:59.286Z,62.20
2019-05-21T03:24:02.993Z,62.30
2019-05-21T03:29:06.714Z,62.00
2019-05-21T03:34:10.516Z,62.30
2019-05-21T03:39:18.503Z,62.00
2019-05-21T03:44:19.706Z,61.80
2019-05-21T03:49:23.455Z,61.80
2019-05-21T03:54:27.161Z,61.30
2019-05-21T03:59:30.867Z,62.10
2019-05-21T04:04:34.609Z,62.60
2019-05-21T04:09:38.403Z,62.80
2019-05-21T04:14:46.448Z,62.40
2019-05-21T04:19:50.394Z,62.50
2019-05-21T04:24:54.161Z,62.50
2019-05-21T04:29:57.937Z,62.30
2019-05-21T04:35:01.671Z,62.00
2019-05-21T04:40:05.519Z,61.50
2019-05-21T04:45:09.234Z,61.70
2019-05-21T04:50:13.138Z,61.50
2019-05-21T04:55:16.874Z,61.30
2019-05-21T05:00:20.699Z,61.00
2019-05-21T05:05:24.591Z,61.60
2019-05-21T05:10:28.512Z,61.40
2019-05-21T05:15:32.251Z,61.50
2019-05-21T05:20:36.141Z,61.40
2019-05-21T05:25:40.039Z,62.40
2019-05-21T05:30:43.844Z,62.30
2019-05-21T05:35:47.863Z,62.90
2019-05-21T05:40:51.601Z,61.70
2019-05-21T05:45:55.581Z,61.10
2019-05-21T05:51:01.231Z,59.90
2019-05-21T05:56:04.999Z,59.80
2019-05-21T06:01:09.760Z,59.70
2019-05-21T06:06:13.622Z,59.90
2019-05-21T06:11:17.489Z,60.10
2019-05-21T06:16:21.327Z,60.70
2019-05-21T06:21:25.192Z,60.00
2019-05-21T06:26:29.087Z,60.10
2019-05-21T06:31:32.779Z,60.10
2019-05-21T06:36:36.562Z,60.30
2019-05-21T06:41:40.491Z,60.40
2019-05-21T06:47:04.039Z,60.60
2019-05-21T06:52:07.855Z,60.50
2019-05-21T06:57:11.720Z,60.60
2019-05-21T07:02:15.656Z,60.70
2019-05-21T07:07:19.438Z,60.70
2019-05-21T07:12:23.221Z,60.80
2019-05-21T07:17:27.044Z,60.80
2019-05-21T07:22:30.863Z,60.80
2019-05-21T07:27:34.631Z,60.80
2019-05-21T07:32:39.042Z,60.90
2019-05-21T07:37:43.154Z,60.90
2019-05-21T07:42:47.046Z,60.90
2019-05-21T07:47:50.893Z,61.00
2019-05-21T07:52:54.738Z,61.10
2019-05-21T07:57:58.525Z,61.10
2019-05-21T08:03:02.338Z,61.20
2019-05-21T08:08:06.101Z,61.20
2019-05-21T08:13:09.961Z,61.30
2019-05-21T08:18:13.964Z,61.30
2019-05-21T08:23:17.738Z,61.40
2019-05-21T08:28:21.503Z,61.30
2019-05-21T08:33:25.222Z,61.40
2019-05-21T08:38:29.076Z,61.30
2019-05-21T08:43:33.001Z,61.50
2019-05-21T08:48:36.824Z,61.50
2019-05-21T08:53:40.899Z,61.60
2019-05-21T08:58:44.676Z,62.80
2019-05-21T09:03:48.446Z,63.00
2019-05-21T09:08:52.305Z,62.20
2019-05-21T09:13:56.258Z,62.50
2019-05-21T09:19:00.096Z,62.40
2019-05-21T09:24:03.893Z,62.40
2019-05-21T09:29:07.746Z,62.50
2019-05-21T09:34:11.488Z,62.60
2019-05-21T09:39:15.529Z,62.80
2019-05-21T09:44:19.265Z,62.80
2019-05-21T09:49:23.045Z,62.80
2019-05-21T09:54:26.824Z,62.80
2019-05-21T09:59:55.379Z,62.80
2019-05-21T10:04:59.153Z,62.70
2019-05-21T10:10:03.085Z,62.70
2019-05-21T10:15:07.991Z,62.70
2019-05-21T10:20:11.602Z,62.60
2019-05-21T10:25:15.961Z,62.60
2019-05-21T10:30:19.799Z,62.40
2019-05-21T10:35:23.751Z,62.30
2019-05-21T10:40:27.540Z,62.20
2019-05-21T10:45:31.315Z,62.00
2019-05-21T10:50:34.961Z,61.90
2019-05-21T10:55:38.652Z,61.80
2019-05-21T11:00:43.614Z,61.80
2019-05-21T11:06:07.411Z,61.60
2019-05-21T11:10:58.065Z,61.50
2019-05-21T11:16:01.647Z,61.40
2019-05-21T11:21:05.518Z,61.30
2019-05-21T11:26:09.551Z,61.30
2019-05-21T11:31:13.256Z,61.10
2019-05-21T11:36:16.983Z,61.10
2019-05-21T11:41:20.750Z,61.00
2019-05-21T11:46:24.581Z,61.00
2019-05-21T11:51:28.339Z,60.90
2019-05-21T11:56:32.106Z,60.90
2019-05-21T12:01:35.887Z,60.80
2019-05-21T12:06:48.240Z,60.80
2019-05-21T12:11:52.058Z,60.80
2019-05-21T12:16:55.843Z,60.70
2019-05-21T12:21:59.594Z,61.30
2019-05-21T12:27:03.431Z,60.60
2019-05-21T12:32:07.150Z,60.60
2019-05-21T12:37:10.963Z,60.50
2019-05-21T12:42:14.719Z,61.00
2019-05-21T12:47:18.472Z,60.60
2019-05-21T12:52:22.486Z,60.60
2019-05-21T12:57:26.398Z,60.60
2019-05-21T13:02:30.180Z,60.80
2019-05-21T13:07:34.720Z,60.80
2019-05-21T13:12:38.613Z,61.20
2019-05-21T13:17:42.467Z,61.40
2019-05-21T13:22:46.386Z,61.70
2019-05-21T13:27:50.213Z,61.90
2019-05-21T13:32:54.162Z,62.00
2019-05-21T13:37:57.912Z,62.30
2019-05-21T13:43:01.696Z,62.30
2019-05-21T13:48:05.505Z,62.50
2019-05-21T13:53:09.538Z,62.50
2019-05-21T13:58:13.343Z,62.40
2019-05-21T14:03:16.999Z,62.70
2019-05-21T14:08:20.948Z,62.70
2019-05-21T14:13:24.900Z,62.70
2019-05-21T14:18:28.774Z,69.20
2019-05-21T14:23:34.188Z,64.60
2019-05-21T14:28:37.870Z,64.30
2019-05-21T14:33:41.695Z,64.30
2019-05-21T14:38:45.448Z,64.20
2019-05-21T14:43:49.300Z,64.20
2019-05-21T14:48:53.077Z,64.20
2019-05-21T14:54:03.055Z,64.60
2019-05-21T14:59:07.049Z,64.30
2019-05-21T15:04:11.408Z,64.10
2019-05-21T15:09:15.824Z,64.40
2019-05-21T15:14:19.661Z,64.40
2019-05-21T15:19:23.457Z,64.20
2019-05-21T15:24:27.261Z,63.60
2019-05-21T15:29:31.209Z,63.20
2019-05-21T15:34:35.047Z,63.10
2019-05-21T15:39:38.782Z,62.80
2019-05-21T15:44:42.586Z,62.90
2019-05-21T15:49:46.334Z,62.60
2019-05-21T15:54:50.470Z,62.40
2019-05-21T15:59:54.534Z,62.50
2019-05-21T16:04:59.364Z,62.30
2019-05-21T16:10:03.193Z,62.10
2019-05-21T16:15:07.366Z,62.00
2019-05-21T16:20:11.663Z,61.80
2019-05-21T16:25:16.620Z,61.80
2019-05-21T16:30:20.485Z,61.80
2019-05-21T16:35:24.259Z,61.80
2019-05-21T16:40:28.205Z,61.70
2019-05-21T16:45:32.186Z,61.60
2019-05-21T16:50:35.996Z,61.50
2019-05-21T16:55:40.025Z,61.60
2019-05-21T17:00:43.852Z,61.40
2019-05-21T17:05:47.632Z,61.40
2019-05-21T17:10:51.509Z,61.40
2019-05-21T17:15:55.634Z,61.30
2019-05-21T17:20:59.399Z,61.20
2019-05-21T17:26:03.146Z,61.10
2019-05-21T17:31:06.868Z,61.10
2019-05-21T17:36:10.625Z,61.10
2019-05-21T17:41:14.376Z,61.10
2019-05-21T17:46:18.254Z,61.10
2019-05-21T17:51:21.930Z,61.50
2019-05-21T17:56:25.707Z,61.20
2019-05-21T18:01:29.953Z,61.20
2019-05-21T18:06:33.833Z,61.40
2019-05-21T18:11:37.757Z,62.40
2019-05-21T18:16:42.034Z,61.90
2019-05-21T18:21:46.096Z,63.70
2019-05-21T18:26:49.997Z,62.10
2019-05-21T18:31:53.979Z,62.40
2019-05-21T18:36:58.372Z,62.50
2019-05-21T18:42:02.282Z,62.70
2019-05-21T18:47:06.166Z,62.90
2019-05-21T18:52:10.088Z,62.90
2019-05-21T18:57:13.852Z,63.50
2019-05-21T19:02:17.587Z,63.40
2019-05-21T19:07:21.310Z,63.50
2019-05-21T19:12:36.999Z,63.60
2019-05-21T19:17:35.715Z,63.50
2019-05-21T19:22:36.255Z,63.50
2019-05-21T19:27:40.144Z,63.60
2019-05-21T19:32:44.745Z,63.60
2019-05-21T19:37:48.460Z,63.80
2019-05-21T19:42:55.378Z,63.70
2019-05-21T19:47:57.710Z,63.60
2019-05-21T19:53:01.361Z,63.50
2019-05-21T19:58:05.323Z,63.40
2019-05-21T20:03:09.108Z,64.20
2019-05-21T20:08:13.192Z,63.60
2019-05-21T20:13:25.061Z,64.00
2019-05-21T20:18:23.404Z,64.10
2019-05-21T20:23:27.552Z,64.30
2019-05-21T20:28:31.452Z,64.10
2019-05-21T20:33:36.776Z,64.40
2019-05-21T20:38:40.733Z,64.40
2019-05-21T20:43:58.203Z,64.60
2019-05-21T20:48:50.303Z,64.70
2019-05-21T20:53:54.457Z,64.80
2019-05-21T20:58:58.252Z,64.90
2019-05-21T21:04:05.106Z,65.00
2019-05-21T21:09:10.304Z,65.50
2019-05-21T21:14:18.226Z,66.90
2019-05-21T21:19:21.693Z,67.40
2019-05-21T21:24:25.876Z,75.40
2019-05-21T21:29:29.638Z,70.90
2019-05-21T21:34:33.498Z,70.00
2019-05-21T21:39:37.832Z,69.50
2019-05-21T21:44:41.699Z,70.40
2019-05-21T21:49:46.899Z,68.20
2019-05-21T21:54:50.778Z,65.30
2019-05-21T21:59:57.138Z,64.00
2019-05-21T22:05:01.172Z,64.50
2019-05-21T22:10:06.670Z,65.40
2019-05-21T22:15:10.722Z,65.70
2019-05-21T22:20:15.267Z,63.90
2019-05-21T22:25:19.134Z,63.70
2019-05-21T22:30:23.121Z,63.40
2019-05-21T22:35:27.106Z,63.30
2019-05-21T22:40:30.879Z,63.10
2019-05-21T22:45:34.633Z,63.10
2019-05-21T22:50:38.365Z,63.00
2019-05-21T22:55:42.476Z,62.90
2019-05-21T23:00:46.612Z,62.80
2019-05-21T23:05:50.346Z,62.70
2019-05-21T23:10:54.018Z,62.70
2019-05-21T23:15:57.850Z,62.60
2019-05-21T23:21:03.321Z,62.50
2019-05-21T23:26:07.615Z,62.40
2019-05-21T23:31:13.009Z,62.30
2019-05-21T23:36:16.939Z,62.30
2019-05-21T23:41:20.699Z,62.20
2019-05-21T23:46:24.627Z,62.20
2019-05-21T23:51:28.429Z,61.80
2019-05-21T23:56:32.190Z,61.80
